Time;durP1;ratioP1;P1;durP2;ratioP2;P2;SDS_P1;SDS_P2;PMS_P1;PMS_P2;Temp;Humidity;BMP_temperature;BMP_pressure;BME280_temperature;BME280_humidity;BME280_pressure;Samples;Min_cycle;Max_cycle;Signal;HPM_P1;HPM_P2
2023/07/26 00:01:17;;;;;;;7.80;2.00;;;;;;;16.54;88.50;99137.75;109756;1285;22906;-76
2023/07/26 00:03:48;;;;;;;8.70;1.90;;;;;;;16.48;88.59;99136.80;109744;1277;22352;-76
2023/07/26 00:06:19;;;;;;;7.40;1.80;;;;;;;16.45;88.59;99136.48;109770;1285;22157;-76
2023/07/26 00:08:50;;;;;;;10.60;2.50;;;;;;;16.41;88.54;99142.88;109771;1285;22329;-76
2023/07/26 00:11:20;;;;;;;8.70;1.70;;;;;;;16.39;88.70;99146.04;109770;1285;22136;-76
2023/07/26 00:13:51;;;;;;;8.20;2.00;;;;;;;16.36;88.88;99150.00;109748;1278;23017;-76
2023/07/26 00:16:22;;;;;;;8.60;1.60;;;;;;;16.31;88.74;99151.91;109731;1285;23066;-76
2023/07/26 00:18:53;;;;;;;6.90;1.60;;;;;;;16.20;88.65;99143.30;109760;1277;22180;-76
2023/07/26 00:21:24;;;;;;;7.30;1.80;;;;;;;16.10;88.36;99146.45;109755;1285;22246;-76
2023/07/26 00:23:55;;;;;;;4.70;1.50;;;;;;;16.03;88.56;99146.45;109274;1285;22623;-76
2023/07/26 00:26:26;;;;;;;6.70;1.70;;;;;;;15.96;88.63;99153.82;106857;1285;25435;-76
2023/07/26 00:28:57;;;;;;;5.30;1.50;;;;;;;15.88;88.84;99146.02;106899;1283;23073;-76
2023/07/26 00:31:28;;;;;;;5.80;1.50;;;;;;;15.85;88.88;99147.59;106895;1283;25970;-76
2023/07/26 00:33:59;;;;;;;8.40;1.80;;;;;;;15.80;89.09;99156.94;106948;1280;22540;-76
2023/07/26 00:36:30;;;;;;;6.70;1.60;;;;;;;15.75;89.53;99162.60;106954;1284;22584;-76
2023/07/26 00:39:01;;;;;;;7.20;2.00;;;;;;;15.71;89.66;99162.39;106971;1279;22555;-75
2023/07/26 00:41:31;;;;;;;9.00;2.00;;;;;;;15.65;89.66;99159.42;106959;1280;22547;-76
2023/07/26 00:44:02;;;;;;;10.90;2.20;;;;;;;15.60;89.58;99158.56;107050;1264;24238;-76
2023/07/26 00:46:33;;;;;;;11.10;1.50;;;;;;;15.55;89.79;99158.64;106938;1285;25523;-75
2023/07/26 00:49:05;;;;;;;8.10;1.70;;;;;;;15.51;89.81;99163.03;106818;1285;26636;-76
2023/07/26 00:51:38;;;;;;;9.40;1.60;;;;;;;15.46;90.10;99169.10;106971;1274;22532;-75
2023/07/26 00:54:10;;;;;;;8.40;1.50;;;;;;;15.40;89.88;99170.36;106873;1280;22536;-76
2023/07/26 00:56:41;;;;;;;7.20;1.30;;;;;;;15.37;89.80;99172.69;106989;1279;22600;-76
2023/07/26 00:59:12;;;;;;;4.80;1.20;;;;;;;15.32;89.95;99179.31;106987;1285;25439;-75
2023/07/26 01:01:44;;;;;;;5.80;1.30;;;;;;;15.24;90.11;99179.85;107035;1285;25335;-75
2023/07/26 01:04:15;;;;;;;7.60;1.60;;;;;;;15.18;89.81;99171.80;107080;1285;22752;-76
2023/07/26 01:06:55;;;;;;;4.10;1.20;;;;;;;15.13;89.79;99166.20;106960;1285;25323;-76
2023/07/26 01:09:36;;;;;;;7.30;1.40;;;;;;;15.06;89.94;99168.00;106954;1285;22529;-76
2023/07/26 01:12:14;;;;;;;4.60;1.30;;;;;;;14.98;90.20;99160.20;106878;1285;25367;-75
2023/07/26 01:14:53;;;;;;;11.00;1.60;;;;;;;14.92;90.33;99161.74;106976;1285;25748;-75
2023/07/26 01:17:24;;;;;;;5.40;1.20;;;;;;;14.87;90.32;99160.60;106984;1285;22536;-75
2023/07/26 01:19:56;;;;;;;9.70;2.20;;;;;;;14.83;90.15;99164.48;106876;1283;22548;-75
2023/07/26 01:22:27;;;;;;;8.40;1.60;;;;;;;14.80;90.39;99161.83;106897;1283;22536;-75
2023/07/26 01:24:58;;;;;;;5.20;1.30;;;;;;;14.76;90.30;99161.88;106976;1285;24578;-76
2023/07/26 01:27:28;;;;;;;8.50;1.40;;;;;;;14.71;90.51;99160.58;106946;1285;22748;-76
2023/07/26 01:30:01;;;;;;;6.20;1.80;;;;;;;14.66;91.25;99166.41;106933;1277;24231;-75
2023/07/26 01:32:35;;;;;;;4.60;1.10;;;;;;;14.62;90.85;99166.80;107047;1282;22531;-76
2023/07/26 01:35:08;;;;;;;5.60;1.50;;;;;;;14.60;91.13;99174.37;106958;1278;22546;-75
2023/07/26 01:37:39;;;;;;;4.90;1.30;;;;;;;14.58;91.01;99176.08;107008;1280;23327;-77
2023/07/26 01:40:13;;;;;;;5.20;1.10;;;;;;;14.56;90.80;99181.95;106930;1282;23960;-75
2023/07/26 01:42:45;;;;;;;7.50;1.20;;;;;;;14.56;90.97;99186.89;106923;1278;24226;-75
2023/07/26 01:45:16;;;;;;;7.00;1.00;;;;;;;14.54;91.07;99193.05;106971;1280;22527;-75
2023/07/26 01:47:47;;;;;;;6.90;1.50;;;;;;;14.51;90.77;99189.05;107021;1280;22570;-76
2023/07/26 01:50:17;;;;;;;7.40;1.20;;;;;;;14.48;91.22;99189.59;107080;1280;24068;-76
2023/07/26 01:52:48;;;;;;;4.70;1.50;;;;;;;14.46;91.27;99191.68;106984;1285;25433;-76
2023/07/26 01:55:19;;;;;;;9.10;1.50;;;;;;;14.44;91.41;99188.13;106929;1283;25185;-75
2023/07/26 01:57:50;;;;;;;5.20;1.30;;;;;;;14.43;91.30;99190.13;106877;1270;23302;-76
2023/07/26 02:00:21;;;;;;;4.30;1.20;;;;;;;14.42;91.19;99192.59;106930;1283;22689;-76
2023/07/26 02:02:53;;;;;;;8.90;1.40;;;;;;;14.42;91.26;99192.99;107007;1278;24396;-76
2023/07/26 02:05:25;;;;;;;7.90;1.40;;;;;;;14.43;91.42;99196.72;107032;1280;23061;-75
2023/07/26 02:07:56;;;;;;;6.50;1.30;;;;;;;14.41;91.37;99196.09;107063;1280;23321;-75
2023/07/26 02:10:27;;;;;;;6.90;1.50;;;;;;;14.39;91.79;99194.77;107087;1285;24265;-76
2023/07/26 02:12:58;;;;;;;5.80;1.40;;;;;;;14.37;91.72;99191.75;106971;1280;22649;-76
2023/07/26 02:15:29;;;;;;;4.90;1.20;;;;;;;14.37;92.13;99197.27;106998;1283;22556;-76
2023/07/26 02:18:00;;;;;;;6.10;1.10;;;;;;;14.34;92.26;99194.17;106939;1277;24283;-75
2023/07/26 02:20:31;;;;;;;7.60;1.20;;;;;;;14.32;92.26;99196.86;106967;1270;22537;-76
2023/07/26 02:23:02;;;;;;;8.80;1.60;;;;;;;14.30;92.31;99196.27;106863;1285;22575;-75
2023/07/26 02:25:33;;;;;;;7.40;1.10;;;;;;;14.28;92.45;99195.27;106963;1282;22530;-75
2023/07/26 02:28:04;;;;;;;10.00;1.10;;;;;;;14.25;93.13;99197.13;106933;1283;25483;-74
2023/07/26 02:30:35;;;;;;;8.30;1.20;;;;;;;14.22;92.92;99197.62;106893;1285;25524;-75
2023/07/26 02:33:06;;;;;;;8.30;1.30;;;;;;;14.19;93.49;99205.02;106778;1279;23983;-75
2023/07/26 02:35:37;;;;;;;8.50;1.30;;;;;;;14.16;93.73;99205.61;106548;1280;22578;-75
2023/07/26 02:38:09;;;;;;;4.40;1.30;;;;;;;14.13;94.02;99210.08;106946;1284;22499;-75
2023/07/26 02:40:40;;;;;;;4.30;1.30;;;;;;;14.11;93.91;99210.67;106946;1282;24222;-75
2023/07/26 02:43:11;;;;;;;5.40;1.10;;;;;;;14.09;94.01;99213.81;106993;1285;22555;-75
2023/07/26 02:45:43;;;;;;;6.50;1.60;;;;;;;14.08;94.45;99215.10;106949;1285;26180;-74
2023/07/26 02:48:13;;;;;;;10.30;1.50;;;;;;;14.07;94.28;99216.08;106902;1276;22533;-74
2023/07/26 02:50:44;;;;;;;5.80;1.40;;;;;;;14.06;94.57;99222.00;107068;1285;22520;-75
2023/07/26 02:53:16;;;;;;;8.30;1.60;;;;;;;14.05;94.69;99225.95;107093;1285;22558;-76
2023/07/26 02:55:47;;;;;;;5.60;1.40;;;;;;;14.04;95.12;99229.07;107035;1280;22553;-76
2023/07/26 02:58:18;;;;;;;5.80;1.70;;;;;;;14.03;95.25;99231.19;106978;1284;24755;-76
2023/07/26 03:00:55;;;;;;;7.10;1.80;;;;;;;14.02;95.57;99231.33;106942;1278;26678;-75
2023/07/26 03:03:26;;;;;;;8.70;1.80;;;;;;;14.03;95.76;99235.27;109764;1285;22167;-76
2023/07/26 03:05:58;;;;;;;7.50;1.80;;;;;;;14.02;95.98;99234.05;109764;1285;22200;-76
2023/07/26 03:08:30;;;;;;;8.70;2.20;;;;;;;14.02;96.32;99236.80;109782;1285;22182;-77
2023/07/26 03:11:00;;;;;;;8.60;2.40;;;;;;;14.01;96.24;99242.10;109766;1285;22184;-76
2023/07/26 03:13:31;;;;;;;9.00;2.10;;;;;;;14.02;96.35;99242.36;109778;1285;22290;-75
2023/07/26 03:16:02;;;;;;;8.10;2.40;;;;;;;14.02;96.60;99247.30;109783;1280;22214;-75
2023/07/26 03:18:33;;;;;;;8.30;2.20;;;;;;;14.03;96.83;99250.02;109776;1285;22159;-76
2023/07/26 03:21:04;;;;;;;9.30;2.40;;;;;;;14.04;96.97;99254.17;109780;1285;22982;-77
2023/07/26 03:23:35;;;;;;;8.60;2.00;;;;;;;14.04;97.05;99256.63;109789;1285;22145;-78
2023/07/26 03:26:06;;;;;;;10.50;2.30;;;;;;;14.05;97.28;99263.71;109780;1285;22209;-77
2023/07/26 03:28:37;;;;;;;7.10;2.30;;;;;;;14.03;97.73;99265.20;109781;1285;22918;-78
2023/07/26 03:31:08;;;;;;;8.30;2.50;;;;;;;14.02;97.50;99269.81;109787;1285;22622;-78
2023/07/26 03:33:39;;;;;;;9.40;2.00;;;;;;;14.01;97.79;99270.40;109796;1285;22168;-78
2023/07/26 03:36:11;;;;;;;8.90;2.50;;;;;;;13.99;98.16;99271.93;109788;1285;22203;-79
2023/07/26 03:38:42;;;;;;;8.20;2.10;;;;;;;13.96;98.39;99270.87;109776;1285;22765;-79
2023/07/26 03:41:13;;;;;;;11.00;3.70;;;;;;;13.93;98.58;99269.95;109761;1285;22147;-79
2023/07/26 03:43:44;;;;;;;8.60;2.80;;;;;;;13.91;99.29;99276.96;109792;1285;22173;-79
2023/07/26 03:46:15;;;;;;;7.80;2.70;;;;;;;13.88;99.48;99280.96;109806;1285;22169;-80
2023/07/26 03:48:47;;;;;;;9.80;3.10;;;;;;;13.85;99.91;99280.99;109771;1285;22543;-80
2023/07/26 03:51:18;;;;;;;9.70;2.30;;;;;;;13.83;99.69;99285.55;109758;1285;22174;-80
2023/07/26 03:53:48;;;;;;;8.60;2.20;;;;;;;13.82;99.66;99291.02;109771;1278;22316;-80
2023/07/26 03:56:19;;;;;;;11.00;2.60;;;;;;;13.82;99.74;99301.13;109778;1279;22185;-80
2023/07/26 03:58:51;;;;;;;14.60;2.30;;;;;;;13.81;99.84;99304.60;109767;1278;22527;-80
2023/07/26 04:01:22;;;;;;;8.80;2.70;;;;;;;13.80;99.73;99303.98;109778;1285;22298;-79
2023/07/26 04:03:53;;;;;;;10.80;2.80;;;;;;;13.81;99.91;99306.98;109765;1277;22341;-79
2023/07/26 04:06:25;;;;;;;9.50;2.80;;;;;;;13.81;99.96;99310.46;109755;1284;22185;-80
2023/07/26 04:08:56;;;;;;;10.30;2.20;;;;;;;13.80;100.00;99318.42;109784;1285;23107;-80
2023/07/26 04:11:27;;;;;;;10.60;2.80;;;;;;;13.82;100.00;99319.13;109764;1274;22306;-79
2023/07/26 04:13:58;;;;;;;8.30;2.10;;;;;;;13.83;99.98;99324.42;109791;1285;22195;-79
2023/07/26 04:16:29;;;;;;;13.50;2.50;;;;;;;13.83;100.00;99330.59;109775;1285;22175;-80
2023/07/26 04:19:00;;;;;;;10.50;2.60;;;;;;;13.85;99.87;99333.23;109788;1285;22464;-79
2023/07/26 04:21:31;;;;;;;12.90;2.60;;;;;;;13.88;99.93;99341.72;109774;1264;22923;-79
2023/07/26 04:24:02;;;;;;;7.50;2.60;;;;;;;13.91;99.97;99340.98;109798;1284;22269;-79
2023/07/26 04:26:33;;;;;;;9.50;2.50;;;;;;;13.92;99.91;99342.34;109786;1285;22721;-78
2023/07/26 04:29:04;;;;;;;9.90;2.70;;;;;;;13.92;99.96;99344.48;109782;1285;22208;-79
2023/07/26 04:31:35;;;;;;;11.00;2.60;;;;;;;13.94;99.97;99349.98;109781;1283;22186;-79
2023/07/26 04:34:06;;;;;;;9.20;2.10;;;;;;;13.95;99.97;99353.29;109780;1285;22218;-79
2023/07/26 04:36:37;;;;;;;9.70;3.00;;;;;;;13.97;99.99;99355.05;109788;1285;22122;-79
2023/07/26 04:39:08;;;;;;;8.60;2.00;;;;;;;13.97;100.00;99356.95;109805;1282;22252;-79
2023/07/26 04:41:39;;;;;;;8.80;2.70;;;;;;;13.97;100.00;99361.85;109783;1285;22895;-79
2023/07/26 04:44:11;;;;;;;8.50;2.50;;;;;;;13.95;100.00;99363.64;109765;1285;22139;-79
2023/07/26 04:46:41;;;;;;;9.10;2.70;;;;;;;13.97;100.00;99369.65;109785;1285;22179;-79
2023/07/26 04:49:12;;;;;;;8.70;2.90;;;;;;;13.97;100.00;99371.58;109767;1285;22976;-79
2023/07/26 04:51:43;;;;;;;10.90;2.20;;;;;;;13.98;100.00;99371.79;109769;1285;22268;-79
2023/07/26 04:54:14;;;;;;;9.80;3.10;;;;;;;13.97;100.00;99377.05;109792;1284;22188;-79
2023/07/26 04:56:46;;;;;;;12.10;2.20;;;;;;;13.96;100.00;99377.05;109773;1277;22152;-79
2023/07/26 04:59:17;;;;;;;10.00;2.10;;;;;;;13.95;100.00;99381.45;109773;1273;22156;-78
2023/07/26 05:01:48;;;;;;;7.10;1.80;;;;;;;13.94;100.00;99380.70;109823;1277;22148;-79
2023/07/26 05:04:19;;;;;;;9.20;2.60;;;;;;;13.93;100.00;99382.23;109772;1285;22226;-79
2023/07/26 05:06:50;;;;;;;15.30;3.00;;;;;;;13.91;100.00;99382.86;109783;1280;22329;-78
2023/07/26 05:09:22;;;;;;;12.60;2.80;;;;;;;13.91;100.00;99386.27;109796;1285;22183;-79
2023/07/26 05:11:53;;;;;;;10.40;2.90;;;;;;;13.90;100.00;99391.70;109783;1277;22168;-79
2023/07/26 05:14:24;;;;;;;9.80;2.20;;;;;;;13.91;100.00;99395.05;109763;1285;22196;-79
2023/07/26 05:16:55;;;;;;;9.80;2.70;;;;;;;13.91;100.00;99394.90;109786;1285;22952;-78
2023/07/26 05:19:26;;;;;;;9.60;2.50;;;;;;;13.91;100.00;99396.33;109752;1280;22205;-79
2023/07/26 05:21:57;;;;;;;8.10;2.40;;;;;;;13.91;100.00;99397.61;109760;1279;22149;-78
2023/07/26 05:24:28;;;;;;;6.70;2.30;;;;;;;13.89;100.00;99399.80;109773;1273;22167;-79
2023/07/26 05:26:59;;;;;;;9.60;3.10;;;;;;;13.89;100.00;99402.11;109781;1285;22217;-79
2023/07/26 05:29:30;;;;;;;8.00;2.40;;;;;;;13.88;100.00;99402.52;109752;1285;22181;-78
2023/07/26 05:32:02;;;;;;;8.20;2.40;;;;;;;13.88;100.00;99404.16;109774;1282;22169;-78
2023/07/26 05:34:33;;;;;;;8.10;2.40;;;;;;;13.88;100.00;99407.27;109772;1285;22155;-78
2023/07/26 05:37:04;;;;;;;8.00;2.10;;;;;;;13.88;100.00;99409.73;109764;1285;22956;-79
2023/07/26 05:39:35;;;;;;;12.00;3.30;;;;;;;13.89;100.00;99414.35;109773;1285;22920;-78
2023/07/26 05:42:07;;;;;;;9.60;2.40;;;;;;;13.90;100.00;99415.33;109763;1285;22224;-78
2023/07/26 05:44:39;;;;;;;10.00;2.90;;;;;;;13.90;100.00;99414.05;109781;1285;22258;-78
2023/07/26 05:47:12;;;;;;;8.80;3.00;;;;;;;13.90;100.00;99417.00;109797;1282;22151;-79
2023/07/26 05:49:45;;;;;;;9.50;2.40;;;;;;;13.90;100.00;99422.61;109775;1285;22793;-79
2023/07/26 05:52:16;;;;;;;11.00;3.00;;;;;;;13.89;100.00;99426.39;109764;1270;22249;-78
2023/07/26 05:54:46;;;;;;;7.70;2.30;;;;;;;13.89;100.00;99430.32;109766;1285;22184;-78
2023/07/26 05:57:17;;;;;;;9.10;2.70;;;;;;;13.88;100.00;99434.16;109764;1285;22165;-78
2023/07/26 05:59:48;;;;;;;9.70;3.10;;;;;;;13.87;100.00;99433.80;109758;1285;22182;-78
2023/07/26 06:02:19;;;;;;;7.70;2.70;;;;;;;13.87;100.00;99443.19;109793;1281;22336;-78
2023/07/26 06:04:50;;;;;;;11.10;2.60;;;;;;;13.88;100.00;99448.39;109799;1278;22374;-79
2023/07/26 06:07:22;;;;;;;9.50;2.70;;;;;;;13.90;100.00;99459.54;109815;1280;22170;-78
2023/07/26 06:09:53;;;;;;;6.70;2.20;;;;;;;13.91;100.00;99461.63;109766;1285;22317;-78
2023/07/26 06:12:24;;;;;;;8.60;2.50;;;;;;;13.92;100.00;99465.08;109795;1273;22238;-78
2023/07/26 06:14:55;;;;;;;12.20;2.80;;;;;;;13.92;100.00;99461.05;109761;1274;22203;-78
2023/07/26 06:17:26;;;;;;;7.20;2.50;;;;;;;13.93;100.00;99465.70;109767;1285;22373;-78
2023/07/26 06:19:56;;;;;;;8.30;2.60;;;;;;;13.93;100.00;99471.10;109786;1285;22170;-78
2023/07/26 06:22:29;;;;;;;7.00;1.90;;;;;;;13.95;100.00;99474.96;109789;1285;22835;-78
2023/07/26 06:25:00;;;;;;;9.00;2.00;;;;;;;13.97;100.00;99476.43;109809;1273;22167;-78
2023/07/26 06:27:32;;;;;;;7.50;2.30;;;;;;;13.98;100.00;99483.88;109821;1280;22180;-78
2023/07/26 06:30:03;;;;;;;7.70;1.90;;;;;;;13.99;100.00;99486.52;109776;1279;22203;-78
2023/07/26 06:32:34;;;;;;;8.50;2.20;;;;;;;13.99;100.00;99490.41;109799;1285;22852;-78
2023/07/26 06:35:05;;;;;;;7.90;2.20;;;;;;;13.99;100.00;99491.99;109787;1285;22183;-77
2023/07/26 06:37:36;;;;;;;6.90;1.90;;;;;;;14.00;100.00;99495.20;109803;1273;22167;-78
2023/07/26 06:40:09;;;;;;;8.30;1.80;;;;;;;14.00;100.00;99496.83;109797;1285;22217;-78
2023/07/26 06:42:40;;;;;;;6.00;1.50;;;;;;;14.01;100.00;99497.17;109784;1285;23000;-78
2023/07/26 06:45:14;;;;;;;5.30;1.50;;;;;;;14.01;100.00;99497.58;109766;1285;22224;-78
2023/07/26 06:47:45;;;;;;;8.40;1.90;;;;;;;14.01;100.00;99500.84;109792;1285;22868;-78
2023/07/26 06:50:16;;;;;;;8.70;1.80;;;;;;;14.02;100.00;99500.64;109767;1285;22183;-78
2023/07/26 06:52:48;;;;;;;8.30;1.90;;;;;;;14.03;100.00;99504.46;109781;1279;22127;-79
2023/07/26 06:55:19;;;;;;;5.70;1.70;;;;;;;14.05;100.00;99506.90;109796;1285;22211;-79
2023/07/26 06:57:52;;;;;;;8.40;2.20;;;;;;;14.07;100.00;99510.20;109777;1285;24001;-78
2023/07/26 07:00:23;;;;;;;6.80;2.20;;;;;;;14.09;100.00;99511.56;109774;1285;22174;-78
2023/07/26 07:02:58;;;;;;;7.00;1.90;;;;;;;14.12;100.00;99508.02;109816;1279;22218;-78
2023/07/26 07:05:35;;;;;;;5.70;1.50;;;;;;;14.13;100.00;99510.19;109786;1285;22112;-77
2023/07/26 07:08:06;;;;;;;6.20;1.70;;;;;;;14.16;100.00;99512.79;109792;1285;22176;-78
2023/07/26 07:10:37;;;;;;;11.20;1.90;;;;;;;14.20;100.00;99514.45;109786;1285;22184;-78
2023/07/26 07:13:09;;;;;;;7.00;1.50;;;;;;;14.22;100.00;99520.91;109798;1285;22933;-77
2023/07/26 07:15:40;;;;;;;8.00;1.80;;;;;;;14.23;100.00;99524.79;109802;1285;22165;-77
2023/07/26 07:18:11;;;;;;;8.90;1.80;;;;;;;14.23;100.00;99523.98;109810;1285;22225;-77
2023/07/26 07:20:42;;;;;;;7.40;1.70;;;;;;;14.25;100.00;99525.44;109782;1285;22126;-77
2023/07/26 07:23:13;;;;;;;4.50;1.70;;;;;;;14.27;100.00;99529.10;109806;1285;22915;-77
2023/07/26 07:25:44;;;;;;;5.60;1.40;;;;;;;14.31;100.00;99530.73;109817;1285;22211;-78
2023/07/26 07:28:16;;;;;;;8.00;1.80;;;;;;;14.34;100.00;99532.02;109774;1285;22147;-78
2023/07/26 07:30:47;;;;;;;7.00;1.80;;;;;;;14.37;100.00;99535.33;109781;1285;22523;-78
2023/07/26 07:33:18;;;;;;;8.20;1.80;;;;;;;14.40;100.00;99537.55;109795;1279;22200;-78
2023/07/26 07:35:49;;;;;;;6.10;1.50;;;;;;;14.43;100.00;99537.33;109765;1285;22217;-78
2023/07/26 07:38:20;;;;;;;8.90;1.90;;;;;;;14.45;100.00;99537.35;109801;1279;22864;-78
2023/07/26 07:40:51;;;;;;;8.40;2.40;;;;;;;14.49;100.00;99545.20;109770;1278;22333;-78
2023/07/26 07:43:22;;;;;;;6.90;2.00;;;;;;;14.50;100.00;99544.11;109791;1285;22226;-78
2023/07/26 07:45:53;;;;;;;7.40;2.00;;;;;;;14.52;100.00;99547.15;109777;1285;22320;-78
2023/07/26 07:48:26;;;;;;;8.20;1.70;;;;;;;14.53;100.00;99542.55;109822;1285;22217;-78
2023/07/26 07:50:57;;;;;;;8.90;2.80;;;;;;;14.55;100.00;99539.32;109768;1285;22232;-77
2023/07/26 07:53:28;;;;;;;7.30;1.80;;;;;;;14.58;100.00;99535.36;109805;1285;22183;-78
2023/07/26 07:55:59;;;;;;;7.40;2.70;;;;;;;14.62;100.00;99534.25;109785;1285;22191;-77
2023/07/26 07:58:30;;;;;;;6.40;1.60;;;;;;;14.65;100.00;99532.59;109808;1285;22162;-77
2023/07/26 08:01:01;;;;;;;7.70;1.70;;;;;;;14.68;100.00;99529.09;109774;1285;22925;-77
2023/07/26 08:03:33;;;;;;;6.50;1.60;;;;;;;14.71;100.00;99530.13;109814;1280;22210;-78
2023/07/26 08:06:04;;;;;;;8.90;2.00;;;;;;;14.75;100.00;99528.33;109795;1285;22226;-78
2023/07/26 08:08:35;;;;;;;5.50;1.70;;;;;;;14.79;100.00;99531.34;109784;1285;22119;-78
2023/07/26 08:11:06;;;;;;;9.30;1.50;;;;;;;14.84;100.00;99531.19;109799;1277;22173;-78
2023/07/26 08:13:38;;;;;;;5.00;1.50;;;;;;;14.89;100.00;99530.92;109786;1285;22187;-78
2023/07/26 08:16:09;;;;;;;5.70;1.50;;;;;;;14.93;100.00;99533.22;109808;1279;22246;-77
2023/07/26 08:18:40;;;;;;;6.80;1.80;;;;;;;14.93;100.00;99534.88;109787;1285;22846;-77
2023/07/26 08:21:13;;;;;;;7.10;1.80;;;;;;;14.93;100.00;99542.56;109759;1285;22152;-77
2023/07/26 08:23:44;;;;;;;6.20;1.50;;;;;;;14.91;100.00;99549.98;109774;1279;22146;-77
2023/07/26 08:26:15;;;;;;;5.90;1.70;;;;;;;14.88;100.00;99553.48;109787;1285;22651;-77
2023/07/26 08:28:46;;;;;;;4.50;1.50;;;;;;;14.90;100.00;99557.80;109789;1278;23042;-77
2023/07/26 08:31:17;;;;;;;6.20;2.00;;;;;;;14.92;100.00;99566.42;109781;1285;22140;-77
2023/07/26 08:33:48;;;;;;;6.90;1.60;;;;;;;14.93;100.00;99573.46;109787;1283;22130;-77
2023/07/26 08:36:19;;;;;;;4.50;1.60;;;;;;;14.94;100.00;99579.34;109791;1285;22197;-77
2023/07/26 08:38:50;;;;;;;8.50;1.40;;;;;;;14.96;100.00;99580.50;109799;1276;22183;-77
2023/07/26 08:41:21;;;;;;;4.60;1.10;;;;;;;14.96;100.00;99585.61;109774;1285;22157;-77
2023/07/26 08:43:55;;;;;;;5.50;1.20;;;;;;;14.95;100.00;99582.70;109775;1280;22336;-77
2023/07/26 08:46:27;;;;;;;4.10;1.20;;;;;;;14.95;100.00;99582.29;109791;1270;22163;-77
2023/07/26 08:48:59;;;;;;;8.50;1.60;;;;;;;14.94;100.00;99583.56;109780;1285;22267;-77
2023/07/26 08:51:31;;;;;;;9.30;1.60;;;;;;;14.93;100.00;99586.86;109778;1285;22216;-78
2023/07/26 08:54:02;;;;;;;5.80;1.40;;;;;;;14.96;100.00;99591.84;109794;1285;22238;-77
2023/07/26 08:56:34;;;;;;;8.00;1.70;;;;;;;14.99;100.00;99599.48;109808;1285;22799;-79
2023/07/26 08:59:05;;;;;;;7.00;1.30;;;;;;;14.99;100.00;99603.56;109780;1273;22238;-77
2023/07/26 09:01:36;;;;;;;6.60;1.60;;;;;;;15.01;100.00;99611.48;109759;1285;22394;-78
2023/07/26 09:04:07;;;;;;;6.40;1.60;;;;;;;15.02;100.00;99614.83;109777;1285;23029;-78
2023/07/26 09:06:44;;;;;;;5.70;1.30;;;;;;;15.03;100.00;99619.23;109777;1285;22134;-78
2023/07/26 09:09:15;;;;;;;7.40;1.80;;;;;;;15.04;100.00;99613.27;109789;1285;22181;-78
2023/07/26 09:11:52;;;;;;;6.20;1.20;;;;;;;15.04;100.00;99612.30;109790;1280;22974;-78
2023/07/26 09:14:27;;;;;;;5.10;1.50;;;;;;;15.04;99.95;99616.09;109780;1285;22991;-78
2023/07/26 09:17:01;;;;;;;7.00;1.50;;;;;;;15.03;99.96;99618.30;109812;1285;22165;-77
2023/07/26 09:19:34;;;;;;;7.00;1.50;;;;;;;15.02;100.00;99618.10;109780;1285;22204;-77
2023/07/26 09:22:08;;;;;;;9.30;2.70;;;;;;;14.99;100.00;99619.55;109791;1285;22164;-76
2023/07/26 09:24:41;;;;;;;10.70;2.30;;;;;;;14.95;100.00;99619.48;109781;1285;22195;-77
2023/07/26 09:27:13;;;;;;;8.40;2.20;;;;;;;14.97;100.00;99615.42;109752;1285;22275;-77
2023/07/26 09:29:56;;;;;;;9.00;3.00;;;;;;;15.01;100.00;99615.77;109752;1285;22536;-77
2023/07/26 09:32:32;;;;;;;11.20;2.60;;;;;;;15.04;100.00;99615.78;109782;1285;22213;-77
2023/07/26 09:35:06;;;;;;;11.10;2.70;;;;;;;15.08;100.00;99608.90;109771;1285;23145;-77
2023/07/26 09:37:38;;;;;;;11.10;3.70;;;;;;;15.16;100.00;99613.06;109786;1285;22866;-77
2023/07/26 09:40:11;;;;;;;11.60;3.90;;;;;;;15.23;100.00;99617.23;109783;1273;22211;-77
2023/07/26 09:42:47;;;;;;;11.50;4.20;;;;;;;15.33;100.00;99614.28;109801;1285;22225;-77
2023/07/26 09:45:21;;;;;;;13.00;3.90;;;;;;;15.44;100.00;99619.10;109812;1285;23245;-77
2023/07/26 09:48:04;;;;;;;11.20;2.80;;;;;;;15.54;100.00;99620.67;109793;1285;22360;-77
2023/07/26 09:50:37;;;;;;;15.00;3.80;;;;;;;15.66;100.00;99615.59;109781;1285;22175;-78
2023/07/26 09:53:09;;;;;;;10.30;2.30;;;;;;;15.79;100.00;99614.97;109787;1285;22376;-78
2023/07/26 09:55:40;;;;;;;9.40;2.70;;;;;;;15.88;99.69;99615.63;109779;1285;22209;-78
2023/07/26 09:58:14;;;;;;;10.30;2.50;;;;;;;15.97;99.08;99615.52;109774;1285;22651;-78
2023/07/26 10:00:48;;;;;;;8.30;2.50;;;;;;;16.04;97.94;99616.96;109756;1285;22184;-77
2023/07/26 10:03:22;;;;;;;8.80;3.30;;;;;;;16.08;97.69;99619.82;109789;1285;22222;-78
2023/07/26 10:05:56;;;;;;;11.50;2.80;;;;;;;16.09;97.05;99618.98;109786;1277;22356;-77
2023/07/26 10:08:27;;;;;;;9.80;2.80;;;;;;;16.08;95.86;99619.11;109800;1285;22142;-77
2023/07/26 10:11:00;;;;;;;10.40;2.20;;;;;;;16.09;97.17;99623.35;109771;1273;22171;-78
2023/07/26 10:16:25;;;;;;;8.60;1.80;;;;;;;16.16;94.00;99626.38;109786;1279;22238;-79
2023/07/26 10:18:57;;;;;;;9.70;2.40;;;;;;;16.15;93.93;99625.88;109774;1282;22176;-78
2023/07/26 10:21:30;;;;;;;8.80;2.20;;;;;;;16.16;93.89;99623.90;109764;1285;22473;-78
2023/07/26 10:24:04;;;;;;;6.90;2.00;;;;;;;16.21;94.24;99622.05;109800;1285;22166;-78
2023/07/26 10:26:38;;;;;;;6.00;1.40;;;;;;;16.27;93.62;99623.51;109787;1284;22381;-78
2023/07/26 10:29:10;;;;;;;7.00;2.00;;;;;;;16.30;93.29;99621.06;109790;1285;23185;-78
2023/07/26 10:31:41;;;;;;;9.60;2.00;;;;;;;16.34;94.31;99622.11;109774;1285;22383;-78
2023/07/26 10:34:19;;;;;;;7.40;1.60;;;;;;;16.34;92.58;99622.19;109779;1285;22121;-78
2023/07/26 10:36:50;;;;;;;9.00;2.60;;;;;;;16.31;93.25;99622.58;109799;1273;22168;-78
2023/07/26 10:39:33;;;;;;;6.80;1.40;;;;;;;16.30;93.52;99623.31;109780;1285;22848;-77
2023/07/26 10:42:06;;;;;;;7.60;1.30;;;;;;;16.26;92.56;99618.30;109806;1285;22993;-77
2023/07/26 10:44:42;;;;;;;4.90;1.20;;;;;;;16.24;92.59;99616.89;109794;1285;22152;-78
2023/07/26 10:47:14;;;;;;;10.50;1.80;;;;;;;16.29;93.17;99620.98;109798;1280;22147;-78
2023/07/26 10:49:47;;;;;;;11.10;1.30;;;;;;;16.36;91.14;99626.04;109778;1285;22183;-78
2023/07/26 10:52:19;;;;;;;5.10;0.90;;;;;;;16.41;90.11;99628.12;109800;1285;22211;-78
2023/07/26 10:54:51;;;;;;;7.30;0.90;;;;;;;16.49;90.10;99630.88;109771;1285;22231;-78
2023/07/26 10:57:31;;;;;;;6.30;0.70;;;;;;;16.59;88.48;99636.13;109779;1285;22229;-78
2023/07/26 11:00:04;;;;;;;;;;;;;;;16.64;87.48;99634.56;109785;1285;23230;-78
2023/07/26 11:02:39;;;;;;;8.90;1.00;;;;;;;16.67;87.55;99639.66;109764;1283;22221;-78
2023/07/26 11:05:15;;;;;;;6.00;0.80;;;;;;;16.68;87.57;99636.70;109800;1285;22149;-78
2023/07/26 11:07:54;;;;;;;4.80;0.80;;;;;;;16.74;87.39;99641.13;109790;1283;22146;-79
2023/07/26 11:10:28;;;;;;;3.40;0.50;;;;;;;16.84;86.66;99642.41;109759;1285;22165;-78
2023/07/26 11:13:10;;;;;;;3.20;0.70;;;;;;;16.91;85.64;99641.97;109802;1270;22138;-78
2023/07/26 11:15:42;;;;;;;3.80;0.70;;;;;;;16.99;85.70;99636.02;109786;1285;22132;-77
2023/07/26 11:18:15;;;;;;;3.70;0.70;;;;;;;17.05;83.88;99639.39;105654;1285;5419933;-78
2023/07/26 11:20:49;;;;;;;5.20;0.60;;;;;;;17.07;82.63;99639.95;109763;1285;22252;-78
2023/07/26 11:23:22;;;;;;;6.20;0.80;;;;;;;17.07;81.50;99641.38;109728;1285;22149;-78
2023/07/26 11:25:54;;;;;;;5.70;0.70;;;;;;;17.13;83.69;99630.20;109798;1285;22370;-78
2023/07/26 11:28:34;;;;;;;4.10;0.50;;;;;;;17.28;82.72;99626.55;109787;1285;22449;-78
2023/07/26 11:31:07;;;;;;;5.70;0.60;;;;;;;17.42;81.20;99621.00;109743;1285;22255;-77
2023/07/26 11:33:39;;;;;;;3.60;0.60;;;;;;;17.49;79.18;99617.17;109795;1285;22204;-78
2023/07/26 11:36:21;;;;;;;4.30;0.70;;;;;;;17.59;78.73;99619.41;109804;1285;23027;-78
2023/07/26 11:38:52;;;;;;;4.40;0.90;;;;;;;17.70;77.96;99625.10;109784;1285;22239;-77
2023/07/26 11:41:23;;;;;;;7.30;1.30;;;;;;;17.81;78.67;99615.61;109772;1273;22155;-78
2023/07/26 11:43:54;;;;;;;6.20;1.00;;;;;;;17.90;77.23;99614.23;109799;1283;22332;-77